BE332 / G-JEDW 7700 Squawk Report (22nd of February, 2019)

Aircraft DH8D Reg No. G-JEDW Age N/A
Model DHC-8 Turboprop engines 2 First flight N/A
Registered 27-07-04 Rollout N/A Delivered 27-07-04
Construction No. 4093 Line No. N/A Series Q-402
ADSHEX 400B04 Airline name FlyBE Owner N/A
Airfield based Exeter~Devon~G First tracked 2017-07-13 07:28:00

Flight history for G-JEDW

Route Flight No Date Playback
Leeds Bradford (LBA) - Belfast City (BHD) BE740 2019-03-20 21:45:00
East Midlands Airport (EMA) - Belfast City (BHD) BE362 2019-03-20 20:28:00
Belfast City (BHD) - East Midlands Airport (EMA) BE361 2019-03-20 08:08:00
City (LCY) - Belfast City (BHD) BE1360 2019-03-19 20:54:00
Belfast City (BHD) - City (LCY) BE1359 2019-03-19 19:55:00
City (LCY) - Belfast City (BHD) BE1356 2019-03-19 16:30:00
Belfast City (BHD) - City (LCY) BE1355 2019-03-19 15:32:00
Edinburgh (EDI) - Belfast City (BHD) BE685 2019-03-19 11:29:00
Heathrow (LHR) - Edinburgh (EDI) BE2102 2019-03-19 10:03:00
Edinburgh (EDI) - Heathrow (LHR) BE2101 2019-03-19 07:47:00
Belfast City (BHD) - Edinburgh (EDI) BE694 2019-03-18 21:12:00
City (LCY) - Belfast City (BHD) BE1390 2019-03-18 19:32:00
Belfast City (BHD) - City (LCY) BE1389 2019-03-18 18:27:00
Edinburgh (EDI) - Belfast City (BHD) BE687 2019-03-18 15:04:00
Heathrow (LHR) - Edinburgh (EDI) BE2104 2019-03-18 12:30:00
Edinburgh (EDI) - Heathrow (LHR) BE2103 2019-03-18 10:10:00
Belfast City (BHD) - Edinburgh (EDI) BE680 2019-03-18 07:40:00
Dyce (ABZ) - Belfast City (BHD) BE153 2019-03-17 21:02:00
Birmingham (BHX) - Guernsey (GCI) BE1263 2019-03-17 19:21:00
Leeds Bradford (LBA) - Belfast City (BHD) BE738 2019-03-17 17:45:00
Time Lat Lon Altitude Heading Speed Vertical Rate
2019-02-22 13:17:12 GMT 55.190983 -5.037065 9,725 205 112 -256
2019-02-22 13:17:12 GMT 55.190983 -5.037065 10,500 205 112 -256
2019-02-22 13:17:04 GMT 55.193684 -5.032404 10,700 205 112 -256
2019-02-22 13:16:59 GMT 55.196289 -5.027494 10,875 205 112 -256
2019-02-22 13:16:42 GMT 55.201180 -5.015925 11,025 205 112 -256
2019-02-22 13:16:36 GMT 55.202293 -5.009599 11,275 205 112 -256
2019-02-22 13:16:24 GMT 55.205601 -5.000610 11,400 205 112 -256
2019-02-22 13:16:15 GMT 55.210396 -4.992371 11,650 205 112 -256
2019-02-22 13:16:07 GMT 55.214119 -4.989125 11,900 205 112 -256
2019-02-22 13:15:57 GMT 55.218403 -4.984297 11,875 202 113 -640
2019-02-22 13:15:44 GMT 55.223289 -4.978138 12,000 198 230 -1600
2019-02-22 13:15:32 GMT 55.229809 -4.973394 12,025 198 230 -1600
2019-02-22 13:15:24 GMT 55.238419 -4.969815 12,150 198 230 -1600
2019-02-22 13:15:13 GMT 55.238419 -4.969815 12,300 198 230 -1600
2019-02-22 13:14:59 GMT 55.245590 -4.967235 12,575 198 230 -1600
2019-02-22 13:14:53 GMT 55.249920 -4.964905 12,900 198 230 -1600
2019-02-22 13:14:39 GMT 55.257179 -4.960827 13,125 198 230 -1600
2019-02-22 13:14:20 GMT 55.267189 -4.954917 13,625 198 230 -1600
2019-02-22 13:14:08 GMT 55.278084 -4.949591 13,925 198 230 -1600
2019-02-22 13:14:01 GMT 55.281483 -4.947510 14,125 198 230 -1600
2019-02-22 13:13:47 GMT 55.293583 -4.941268 14,400 198 230 -1600
2019-02-22 13:13:35 GMT 55.303223 -4.936523 14,700 198 230 -1600
2019-02-22 13:13:24 GMT 55.312485 -4.932112 14,925 198 230 -1600
2019-02-22 13:13:18 GMT 55.317001 -4.929532 15,200 198 230 -1600
2019-02-22 13:13:05 GMT 55.331200 -4.921792 15,400 198 230 -1600
2019-02-22 13:12:53 GMT 55.339809 -4.916964 15,625 198 230 -1600
2019-02-22 13:12:48 GMT 55.345490 -4.913885 15,900 198 230 -1600
2019-02-22 13:12:30 GMT 55.363506 -4.903897 16,250 197 239 -1856
2019-02-22 13:12:25 GMT 55.367416 -4.901317 16,650 197 239 -1856
2019-02-22 13:12:07 GMT 55.385479 -4.891496 16,825 194 272 -720
2019-02-22 13:10:19 GMT 55.498676 -4.825025 20,375 194 272 -720
2019-02-22 13:10:06 GMT 55.511063 -4.832357 20,800 198 299 -120
2019-02-22 13:09:20 GMT 55.569313 -4.794047 21,875 198 299 -120
2019-02-22 13:09:08 GMT 55.585133 -4.784163 21,950 197 292 0
2019-02-22 13:08:53 GMT 55.604813 -4.773264 21,975 196 300 0
2019-02-22 13:08:33 GMT 55.645565 -4.751039 22,000 197 263 0
2019-02-22 13:08:21 GMT 55.645565 -4.751039 22,000 197 297 0
2019-02-22 13:08:10 GMT 55.660004 -4.742938 22,000 196 292 0
2019-02-22 13:08:00 GMT 55.686069 -4.728602 22,000 197 287 0
2019-02-22 13:07:50 GMT 55.686069 -4.728602 22,000 196 282 0
2019-02-22 13:07:40 GMT 55.698555 -4.721875 22,000 196 277 0
2019-02-22 13:07:30 GMT 55.710674 -4.715299 22,000 197 288 0
2019-02-22 13:07:19 GMT 55.724720 -4.707560 22,000 197 269 0
2019-02-22 13:07:09 GMT 55.737167 -4.700634 22,000 197 299 0
2019-02-22 13:06:58 GMT 55.751720 -4.692563 22,000 196 265 0
2019-02-22 13:06:45 GMT 55.767014 -4.684364 22,000 197 292 0
2019-02-22 13:05:40 GMT 55.850334 -4.638570 22,000 198 280 60
2019-02-22 13:05:29 GMT 55.864197 -4.630629 22,000 197 292 60
2019-02-22 13:05:19 GMT 55.877094 -4.623426 22,000 196 288 -120
2019-02-22 13:05:09 GMT 55.890633 -4.616309 21,975 197 285 60
2019-02-22 13:04:58 GMT 55.904526 -4.608730 21,975 197 287 0
2019-02-22 13:04:48 GMT 55.916615 -4.601601 21,975 197 274 0
2019-02-22 13:04:36 GMT 55.931850 -4.592680 21,975 197 288 0
2019-02-22 13:03:38 GMT 56.007458 -4.551804 22,000 198 286 0
2019-02-22 13:03:28 GMT 56.034309 -4.536445 22,000 197 302 0
2019-02-22 13:03:17 GMT 56.034309 -4.536445 22,000 197 299 60
2019-02-22 13:03:07 GMT 56.047348 -4.528816 22,000 193 281 60
2019-02-22 13:02:55 GMT 56.062862 -4.520130 22,000 196 273 0
2019-02-22 13:02:45 GMT 56.141701 -4.475967 21,975 192 297 0
2019-02-22 13:01:54 GMT 56.141701 -4.475967 22,000 192 292 0
2019-02-22 13:01:30 GMT 56.174458 -4.463364 21,975 191 292 0
2019-02-22 13:01:07 GMT 56.204498 -4.451658 21,975 191 292 0
2019-02-22 13:00:55 GMT 56.220802 -4.445753 22,000 191 284 0
2019-02-22 13:00:44 GMT 56.234966 -4.440345 22,000 192 295 0
2019-02-22 13:00:26 GMT 56.278809 -4.423222 22,000 192 287 0
2019-02-22 13:00:11 GMT 56.278809 -4.423222 22,000 191 303 0
2019-02-22 13:00:00 GMT 56.293938 -4.417631 22,000 192 304 0
2019-02-22 12:59:50 GMT 56.307697 -4.412207 22,000 191 295 60
2019-02-22 12:59:39 GMT 56.322502 -4.406608 22,000 191 279 0
2019-02-22 12:59:26 GMT 56.338741 -4.400315 22,000 191 286 -60
2019-02-22 12:59:14 GMT 56.354362 -4.394826 21,975 192 297 0
2019-02-22 12:59:04 GMT 56.368015 -4.389198 22,000 192 283 0
2019-02-22 12:58:54 GMT 56.380524 -4.384577 22,000 193 295 0
2019-02-22 12:58:44 GMT 56.408466 -4.373000 22,000 191 303 0
2019-02-22 12:58:33 GMT 56.408466 -4.373000 22,000 191 287 0
2019-02-22 12:58:23 GMT 56.421535 -4.368402 22,000 192 304 0
2019-02-22 12:58:12 GMT 56.436661 -4.362083 22,000 191 292 60
2019-02-22 12:58:02 GMT 56.450184 -4.357143 22,000 190 285 60
2019-02-22 12:57:51 GMT 56.464474 -4.352332 22,000 187 289 0
2019-02-22 12:57:40 GMT 56.479107 -4.348936 21,975 185 294 0
2019-02-22 12:57:22 GMT 56.504276 -4.344783 21,975 185 292 -60
2019-02-22 12:57:12 GMT 56.517582 -4.342301 22,000 184 308 0
2019-02-22 12:57:02 GMT 56.531792 -4.340178 22,000 185 299 0
2019-02-22 12:56:48 GMT 56.551136 -4.337057 22,025 185 305 0
2019-02-22 12:56:37 GMT 56.566116 -4.334511 22,000 185 287 0
2019-02-22 12:56:26 GMT 56.580608 -4.331920 22,000 185 314 0
2019-02-22 12:56:11 GMT 56.602360 -4.328010 22,000 185 277 60
2019-02-22 12:55:59 GMT 56.617725 -4.325406 22,000 185 288 0
2019-02-22 12:55:47 GMT 56.635235 -4.322484 21,975 185 278 -60
2019-02-22 12:55:37 GMT 56.648685 -4.320411 21,975 185 288 0
2019-02-22 12:55:27 GMT 56.661602 -4.318146 22,000 185 299 0
2019-02-22 12:55:15 GMT 56.677689 -4.315523 22,000 184 296 0
2019-02-22 12:55:05 GMT 56.691505 -4.313156 22,000 184 269 0
2019-02-22 12:54:54 GMT 56.705193 -4.311095 22,000 184 285 0
2019-02-22 12:54:43 GMT 56.720272 -4.308777 22,000 184 276 0
2019-02-22 12:54:33 GMT 56.732986 -4.306782 22,000 183 251 60
2019-02-22 12:54:23 GMT 56.744617 -4.305482 22,000 185 272 60
2019-02-22 12:54:03 GMT 56.770496 -4.301178 21,975 184 251 180
2019-02-22 12:53:51 GMT 56.784401 -4.298989 21,950 186 253 180
2019-02-22 12:53:41 GMT 56.797451 -4.296533 21,900 184 247 1560
2019-02-22 12:53:31 GMT 56.809273 -4.294597 21,825 183 253 900
2019-02-22 12:53:18 GMT 56.824478 -4.292763 21,475 185 244 1620
2019-02-22 12:53:07 GMT 56.836872 -4.290703 21,300 183 345

Making use of Plane Finder data

You are free to use the raw flight data, aircraft information and images provided in this report for your own purposes provided the data is correctly attributed to Plane Finder. We ask that you please credit Plane Finder and link to planefinder.net in close proximity to the content.

Optionally one of the following logos (no smaller then 150x24px) can be used and must link to planefinder.net

Embedding the Plane Finder map

You are welcome to embed the Plane Finder playback map on your website to offer visitors a more interactive experience. We suggest using the following HTML code:

<iframe src="//planefinder.net/data/report/BE332-G-JEDW-7700-squawk-2019-02-22/map" width="800" height="600" seamless="seamless"></iframe>

Where our data comes from

Plane Finder has a global network of data feeds and antenna radars that receive data broadcast directly from aircraft. The primary technologies used are ADS-B and MLAT. We also show feeds from the FAA and a FLARM glider feed.

Click here to find out more about the Plane Finder network.

How we collect our data